createdAt,value
2019-01-09T00:01:23.906Z,2.26
2019-01-09T00:03:57.363Z,2.27
2019-01-09T00:06:30.755Z,2.29
2019-01-09T00:09:06.721Z,2.44
2019-01-09T00:11:39.370Z,2.45
2019-01-09T00:14:12.375Z,2.43
2019-01-09T00:16:45.867Z,2.51
2019-01-09T00:19:19.543Z,2.51
2019-01-09T00:21:52.571Z,2.50
2019-01-09T00:24:26.384Z,2.43
2019-01-09T00:26:59.561Z,2.30
2019-01-09T00:29:32.949Z,2.22
2019-01-09T00:32:05.950Z,2.18
2019-01-09T00:34:39.406Z,2.09
2019-01-09T00:37:13.291Z,2.06
2019-01-09T00:39:47.150Z,2.09
2019-01-09T00:42:20.637Z,1.96
2019-01-09T00:44:53.851Z,1.97
2019-01-09T00:47:27.319Z,1.91
2019-01-09T00:50:00.786Z,1.88
2019-01-09T00:52:34.191Z,1.91
2019-01-09T00:55:07.506Z,1.85
2019-01-09T00:57:41.456Z,1.93
2019-01-09T01:00:16.392Z,1.86
2019-01-09T01:03:08.626Z,1.79
2019-01-09T01:06:41.932Z,1.78
2019-01-09T01:09:59.683Z,1.78
2019-01-09T01:13:08.918Z,1.75
2019-01-09T01:16:18.789Z,1.77
2019-01-09T01:19:25.232Z,1.74
2019-01-09T01:22:31.715Z,1.74
2019-01-09T01:26:13.386Z,1.84
2019-01-09T01:29:27.831Z,1.82
2019-01-09T01:32:30.745Z,1.90
2019-01-09T01:35:54.487Z,1.90
2019-01-09T01:38:56.287Z,1.91
2019-01-09T01:42:13.091Z,1.96
2019-01-09T01:45:02.881Z,1.97
2019-01-09T01:48:16.943Z,1.90
2019-01-09T01:51:18.932Z,1.83
2019-01-09T01:54:23.423Z,1.84
2019-01-09T01:57:36.662Z,2.00
2019-01-09T02:00:54.014Z,1.97
2019-01-09T02:04:03.632Z,1.87
2019-01-09T02:07:25.073Z,1.89
2019-01-09T02:10:55.087Z,1.97
2019-01-09T02:14:12.093Z,1.90
2019-01-09T02:17:09.288Z,1.96
2019-01-09T02:20:08.599Z,1.88
2019-01-09T02:23:26.189Z,1.85
2019-01-09T02:26:13.747Z,1.93
2019-01-09T02:29:24.550Z,1.96
2019-01-09T02:32:34.956Z,1.95
2019-01-09T02:35:08.011Z,1.85
2019-01-09T02:37:41.566Z,1.74
2019-01-09T02:40:15.166Z,1.68
2019-01-09T02:42:48.997Z,1.75
2019-01-09T02:45:24.221Z,1.78
2019-01-09T02:47:58.115Z,1.73
2019-01-09T02:50:31.516Z,1.78
2019-01-09T02:53:05.209Z,1.64
2019-01-09T02:55:39.502Z,1.57
2019-01-09T02:58:13.267Z,1.76
2019-01-09T03:00:46.208Z,1.83
2019-01-09T03:03:19.618Z,1.91
2019-01-09T03:05:52.226Z,1.94
2019-01-09T03:08:25.945Z,2.02
2019-01-09T03:10:59.662Z,2.08
2019-01-09T03:13:32.950Z,2.09
2019-01-09T03:16:06.605Z,2.08
2019-01-09T03:18:39.794Z,2.01
2019-01-09T03:21:13.132Z,1.94
2019-01-09T03:23:46.726Z,1.83
2019-01-09T03:26:20.471Z,1.86
2019-01-09T03:28:53.712Z,1.88
2019-01-09T03:31:27.473Z,1.98
2019-01-09T03:34:00.102Z,1.91
2019-01-09T03:36:33.778Z,1.92
2019-01-09T03:39:07.110Z,1.93
2019-01-09T03:41:40.083Z,1.89
2019-01-09T03:44:13.357Z,1.95
2019-01-09T03:46:46.764Z,2.05
2019-01-09T03:49:20.041Z,2.06
2019-01-09T03:51:53.946Z,2.13
2019-01-09T03:54:26.565Z,2.09
2019-01-09T03:56:59.589Z,2.03
2019-01-09T03:59:32.945Z,2.17
2019-01-09T04:02:06.089Z,2.17
2019-01-09T04:04:39.420Z,2.18
2019-01-09T04:07:13.049Z,2.08
2019-01-09T04:09:46.422Z,2.06
2019-01-09T04:12:20.284Z,2.14
2019-01-09T04:14:53.323Z,2.19
2019-01-09T04:17:26.415Z,2.20
2019-01-09T04:20:02.168Z,2.12
2019-01-09T04:22:35.252Z,2.23
2019-01-09T04:25:08.764Z,2.22
2019-01-09T04:27:42.160Z,2.06
2019-01-09T04:30:15.442Z,2.00
2019-01-09T04:32:48.093Z,1.94
2019-01-09T04:35:21.603Z,1.97
2019-01-09T04:37:56.346Z,1.87
2019-01-09T04:40:28.926Z,1.86
2019-01-09T04:43:04.067Z,1.85
2019-01-09T04:45:37.864Z,1.70
2019-01-09T04:48:11.260Z,1.86
2019-01-09T04:50:44.238Z,2.04
2019-01-09T04:53:17.581Z,2.03
2019-01-09T04:55:50.984Z,2.01
2019-01-09T04:58:24.023Z,1.93
2019-01-09T05:00:56.705Z,2.08
2019-01-09T05:03:30.126Z,1.96
2019-01-09T05:06:03.560Z,1.86
2019-01-09T05:08:36.698Z,1.79
2019-01-09T05:11:09.824Z,1.84
2019-01-09T05:13:43.293Z,1.78
2019-01-09T05:16:16.682Z,1.62
2019-01-09T05:18:50.175Z,1.68
2019-01-09T05:21:24.092Z,1.74
2019-01-09T05:23:57.076Z,1.69
2019-01-09T05:26:30.156Z,1.69
2019-01-09T05:29:03.594Z,1.67
2019-01-09T05:31:36.244Z,1.69
2019-01-09T05:34:09.614Z,1.70
2019-01-09T05:36:42.527Z,1.67
2019-01-09T05:39:16.380Z,1.76
2019-01-09T05:41:50.279Z,1.86
2019-01-09T05:44:23.642Z,1.92
2019-01-09T05:46:57.048Z,1.88
2019-01-09T05:49:30.425Z,1.92
2019-01-09T05:52:03.544Z,1.75
2019-01-09T05:54:38.236Z,1.56
2019-01-09T05:57:13.401Z,1.43
2019-01-09T05:59:46.793Z,1.20
2019-01-09T06:02:20.497Z,1.29
2019-01-09T06:04:53.173Z,1.18
2019-01-09T06:07:26.434Z,1.17
2019-01-09T06:09:59.471Z,1.13
2019-01-09T06:12:32.489Z,1.19
2019-01-09T06:15:05.841Z,1.31
2019-01-09T06:17:39.380Z,1.41
2019-01-09T06:20:12.773Z,1.36
2019-01-09T06:22:46.076Z,1.46
2019-01-09T06:25:19.521Z,1.49
2019-01-09T06:27:53.042Z,1.55
2019-01-09T06:30:26.631Z,1.55
2019-01-09T06:32:59.331Z,1.59
2019-01-09T06:35:32.869Z,1.55
2019-01-09T06:38:06.827Z,1.58
2019-01-09T06:40:40.651Z,1.65
2019-01-09T06:43:16.453Z,1.84
2019-01-09T06:45:50.215Z,1.82
2019-01-09T06:48:23.823Z,1.84
2019-01-09T06:50:57.109Z,1.98
2019-01-09T06:53:30.540Z,1.99
2019-01-09T06:56:03.906Z,2.05
2019-01-09T06:58:37.546Z,2.06
2019-01-09T07:01:11.542Z,1.96
2019-01-09T07:03:44.900Z,1.98
2019-01-09T07:06:18.895Z,1.90
2019-01-09T07:08:53.678Z,1.83
2019-01-09T07:11:27.148Z,1.74
2019-01-09T07:14:01.124Z,1.88
2019-01-09T07:16:34.746Z,1.92
2019-01-09T07:19:07.746Z,1.86
2019-01-09T07:21:45.591Z,1.82
2019-01-09T07:24:16.379Z,1.72
2019-01-09T07:26:51.731Z,1.72
2019-01-09T07:29:25.111Z,1.58
2019-01-09T07:31:58.548Z,1.61
2019-01-09T07:34:32.442Z,1.54
2019-01-09T07:37:05.427Z,1.51
2019-01-09T07:39:39.097Z,1.42
2019-01-09T07:42:13.548Z,1.42
2019-01-09T07:44:47.045Z,1.34
2019-01-09T07:47:20.337Z,1.34
2019-01-09T07:49:53.429Z,1.46
2019-01-09T07:52:26.518Z,1.46
2019-01-09T07:54:59.519Z,1.55
2019-01-09T07:57:31.815Z,1.49
2019-01-09T08:00:06.444Z,1.47
2019-01-09T08:02:39.488Z,1.54
2019-01-09T08:05:12.219Z,1.42
2019-01-09T08:07:53.552Z,1.42
2019-01-09T08:10:18.976Z,1.40
2019-01-09T08:12:52.370Z,1.38
2019-01-09T08:15:26.090Z,1.39
2019-01-09T08:17:59.776Z,1.58
2019-01-09T08:20:32.403Z,1.68
2019-01-09T08:23:06.008Z,1.66
2019-01-09T08:25:40.871Z,1.70
2019-01-09T08:28:13.560Z,1.68
2019-01-09T08:30:47.401Z,1.71
2019-01-09T08:33:21.237Z,1.70
2019-01-09T08:35:54.589Z,1.64
2019-01-09T08:38:27.594Z,1.68
2019-01-09T08:41:01.084Z,1.64
2019-01-09T08:43:34.208Z,1.80
2019-01-09T08:46:07.798Z,1.89
2019-01-09T08:48:41.495Z,1.95
2019-01-09T08:51:14.448Z,1.96
2019-01-09T08:53:47.823Z,1.92
2019-01-09T08:56:21.335Z,1.86
2019-01-09T08:58:54.729Z,1.80
2019-01-09T09:01:28.235Z,1.76
2019-01-09T09:04:01.745Z,1.80
2019-01-09T09:06:34.320Z,2.17
2019-01-09T09:09:08.014Z,2.47
2019-01-09T09:11:41.601Z,2.77
2019-01-09T09:14:15.041Z,2.75
2019-01-09T09:16:48.235Z,2.97
2019-01-09T09:19:21.981Z,3.00
2019-01-09T09:21:55.227Z,3.06
2019-01-09T09:24:28.149Z,3.05
2019-01-09T09:27:01.083Z,2.89
2019-01-09T09:29:34.823Z,3.16
2019-01-09T09:32:07.625Z,2.90
2019-01-09T09:34:40.975Z,3.17
2019-01-09T09:37:15.910Z,3.06
2019-01-09T09:39:49.230Z,3.43
2019-01-09T09:42:22.512Z,3.61
2019-01-09T09:44:55.874Z,3.47
2019-01-09T09:47:29.287Z,2.87
2019-01-09T09:50:02.704Z,2.87
2019-01-09T09:52:36.162Z,2.75
2019-01-09T09:55:13.015Z,2.84
2019-01-09T09:57:44.526Z,2.59
2019-01-09T10:00:19.115Z,2.76
2019-01-09T10:02:52.152Z,2.46
2019-01-09T10:05:25.500Z,2.48
2019-01-09T10:07:59.292Z,2.60
2019-01-09T10:10:33.845Z,2.48
2019-01-09T10:13:06.456Z,2.57
2019-01-09T10:15:39.538Z,2.58
2019-01-09T10:18:12.913Z,2.45
2019-01-09T10:20:46.217Z,2.59
2019-01-09T10:23:19.967Z,2.62
2019-01-09T10:25:52.993Z,2.57
2019-01-09T10:28:26.657Z,2.65
2019-01-09T10:31:00.742Z,2.77
2019-01-09T10:33:33.998Z,2.70
2019-01-09T10:36:06.996Z,2.50
2019-01-09T10:38:39.793Z,2.56
2019-01-09T10:41:12.454Z,2.46
2019-01-09T10:43:45.665Z,2.55
2019-01-09T10:46:18.769Z,2.54
2019-01-09T10:48:51.854Z,2.99
2019-01-09T10:51:25.302Z,2.80
2019-01-09T10:54:00.645Z,2.80
2019-01-09T10:56:34.389Z,2.80
2019-01-09T10:59:07.394Z,3.08
2019-01-09T11:01:40.473Z,4.76
2019-01-09T11:04:13.062Z,6.18
2019-01-09T11:06:46.770Z,6.88
2019-01-09T11:09:20.601Z,6.82
2019-01-09T11:11:53.644Z,4.88
2019-01-09T11:14:27.025Z,6.10
2019-01-09T11:17:00.129Z,5.68
2019-01-09T11:19:33.848Z,5.02
2019-01-09T11:22:06.821Z,3.75
2019-01-09T11:24:39.819Z,3.70
2019-01-09T11:27:12.787Z,3.56
2019-01-09T11:29:46.053Z,3.20
2019-01-09T11:32:19.493Z,3.19
2019-01-09T11:34:54.684Z,3.22
2019-01-09T11:37:28.498Z,2.98
2019-01-09T11:40:01.855Z,2.98
2019-01-09T11:42:35.295Z,2.79
2019-01-09T11:45:10.154Z,2.72
2019-01-09T11:47:43.764Z,2.76
2019-01-09T11:50:17.806Z,2.71
2019-01-09T11:52:51.388Z,2.54
2019-01-09T11:55:24.807Z,2.49
2019-01-09T11:57:57.788Z,2.59
2019-01-09T12:00:31.881Z,2.46
2019-01-09T12:03:05.449Z,2.66
2019-01-09T12:05:38.502Z,2.47
2019-01-09T12:08:11.649Z,2.59
2019-01-09T12:10:45.217Z,2.52
2019-01-09T12:13:18.949Z,2.58
2019-01-09T12:15:51.949Z,2.64
2019-01-09T12:18:25.407Z,2.36
2019-01-09T12:20:58.076Z,2.45
2019-01-09T12:23:31.470Z,2.36
2019-01-09T12:26:04.813Z,2.44
2019-01-09T12:28:38.348Z,2.46
2019-01-09T12:31:11.428Z,2.40
2019-01-09T12:33:44.107Z,2.33
2019-01-09T12:36:16.672Z,2.37
2019-01-09T12:38:50.071Z,2.40
2019-01-09T12:41:23.140Z,2.36
2019-01-09T12:43:56.625Z,2.26
2019-01-09T12:46:30.069Z,2.24
2019-01-09T12:49:03.155Z,2.35
2019-01-09T12:51:36.243Z,2.31
2019-01-09T12:54:10.886Z,2.31
2019-01-09T12:56:44.182Z,2.31
2019-01-09T12:59:21.831Z,2.37
2019-01-09T13:01:51.851Z,2.21
2019-01-09T13:04:25.538Z,2.16
2019-01-09T13:06:58.753Z,2.24
2019-01-09T13:09:32.632Z,2.28
2019-01-09T13:12:05.658Z,2.15
2019-01-09T13:14:38.974Z,2.05
2019-01-09T13:17:12.663Z,2.11
2019-01-09T13:19:45.249Z,2.11
2019-01-09T13:22:18.753Z,2.16
2019-01-09T13:24:51.661Z,2.15
2019-01-09T13:27:24.384Z,2.16
2019-01-09T13:29:57.702Z,2.19
2019-01-09T13:32:30.708Z,2.16
2019-01-09T13:35:03.821Z,2.04
2019-01-09T13:37:37.747Z,2.03
2019-01-09T13:40:13.329Z,2.12
2019-01-09T13:42:46.795Z,2.04
2019-01-09T13:45:20.538Z,1.91
2019-01-09T13:47:54.059Z,2.07
2019-01-09T13:50:27.357Z,1.91
2019-01-09T13:53:01.454Z,2.07
2019-01-09T13:55:34.432Z,1.87
2019-01-09T13:58:07.337Z,1.92
2019-01-09T14:00:39.957Z,1.97
2019-01-09T14:03:13.399Z,2.01
2019-01-09T14:05:46.712Z,1.88
2019-01-09T14:08:19.787Z,1.91
2019-01-09T14:10:52.811Z,1.79
2019-01-09T14:13:25.873Z,1.84
2019-01-09T14:15:59.303Z,1.89
2019-01-09T14:18:33.808Z,1.91
2019-01-09T14:21:06.432Z,1.82
2019-01-09T14:23:40.451Z,1.99
2019-01-09T14:26:13.959Z,1.89
2019-01-09T14:28:47.404Z,1.88
2019-01-09T14:31:20.817Z,2.03
2019-01-09T14:33:53.766Z,1.85
2019-01-09T14:36:27.005Z,1.70
2019-01-09T14:39:00.460Z,1.73
2019-01-09T14:41:34.196Z,1.72
2019-01-09T14:44:07.152Z,1.68
2019-01-09T14:46:39.835Z,1.63
2019-01-09T14:49:13.027Z,1.65
2019-01-09T14:51:46.034Z,1.58
2019-01-09T14:54:19.144Z,1.69
2019-01-09T14:56:52.523Z,1.69
2019-01-09T14:59:25.682Z,1.66
2019-01-09T15:01:58.991Z,1.60
2019-01-09T15:04:32.772Z,1.62
2019-01-09T15:07:07.576Z,1.59
2019-01-09T15:09:40.518Z,1.71
2019-01-09T15:12:13.935Z,1.72
2019-01-09T15:14:47.618Z,1.63
2019-01-09T15:17:21.041Z,1.64
2019-01-09T15:19:55.946Z,1.61
2019-01-09T15:22:29.469Z,1.56
2019-01-09T15:25:02.640Z,1.59
2019-01-09T15:27:36.636Z,1.54
2019-01-09T15:30:22.576Z,1.61
2019-01-09T15:32:56.195Z,1.64
2019-01-09T15:35:29.525Z,1.52
2019-01-09T15:38:03.465Z,1.51
2019-01-09T15:40:36.941Z,1.52
2019-01-09T15:43:09.722Z,1.54
2019-01-09T15:45:43.132Z,1.53
2019-01-09T15:48:16.647Z,1.54
2019-01-09T15:50:49.830Z,1.53
2019-01-09T15:53:23.027Z,1.53
2019-01-09T15:55:56.507Z,1.54
2019-01-09T15:58:29.768Z,1.58
2019-01-09T16:01:03.088Z,1.57
2019-01-09T16:03:36.681Z,1.51
2019-01-09T16:06:10.220Z,1.49
2019-01-09T16:08:42.503Z,1.55
2019-01-09T16:11:15.891Z,1.50
2019-01-09T16:13:48.975Z,1.50
2019-01-09T16:16:22.293Z,1.54
2019-01-09T16:18:55.351Z,1.48
2019-01-09T16:21:28.846Z,1.48
2019-01-09T16:24:02.491Z,1.47
2019-01-09T16:26:36.311Z,1.56
2019-01-09T16:29:09.510Z,1.53
2019-01-09T16:31:42.756Z,1.48
2019-01-09T16:34:16.248Z,1.53
2019-01-09T16:36:49.330Z,1.52
2019-01-09T16:39:30.781Z,1.60
2019-01-09T16:41:58.581Z,1.52
2019-01-09T16:44:32.471Z,1.60
2019-01-09T16:47:05.421Z,1.60
2019-01-09T16:49:38.978Z,1.64
2019-01-09T16:52:13.006Z,1.58
2019-01-09T16:54:45.562Z,1.49
2019-01-09T16:57:19.052Z,1.51
2019-01-09T16:59:52.374Z,1.48
2019-01-09T17:02:30.917Z,1.54
2019-01-09T17:05:04.628Z,1.54
2019-01-09T17:07:38.184Z,1.53
2019-01-09T17:10:12.119Z,1.55
2019-01-09T17:12:45.935Z,1.49
2019-01-09T17:15:19.228Z,1.53
2019-01-09T17:17:51.886Z,1.46
2019-01-09T17:20:24.865Z,1.42
2019-01-09T17:22:57.889Z,1.41
2019-01-09T17:25:31.363Z,1.39
2019-01-09T17:28:04.950Z,1.46
2019-01-09T17:30:38.730Z,1.34
2019-01-09T17:33:11.341Z,1.34
2019-01-09T17:35:44.420Z,1.45
2019-01-09T17:38:17.514Z,1.35
2019-01-09T17:40:51.155Z,1.44
2019-01-09T17:43:24.714Z,1.38
2019-01-09T17:45:57.961Z,1.33
2019-01-09T17:48:31.933Z,1.40
2019-01-09T17:51:04.834Z,1.27
2019-01-09T17:53:38.317Z,1.27
2019-01-09T17:56:12.005Z,1.33
2019-01-09T17:58:46.640Z,1.25
2019-01-09T18:01:20.043Z,1.30
2019-01-09T18:03:54.251Z,1.37
2019-01-09T18:06:28.494Z,1.32
2019-01-09T18:09:01.879Z,1.33
2019-01-09T18:11:36.833Z,1.29
2019-01-09T18:14:10.346Z,1.40
2019-01-09T18:16:43.321Z,1.31
2019-01-09T18:19:16.469Z,1.29
2019-01-09T18:21:48.620Z,1.38
2019-01-09T18:24:22.082Z,1.30
2019-01-09T18:26:55.590Z,1.34
2019-01-09T18:29:28.644Z,1.35
2019-01-09T18:32:36.871Z,1.36
2019-01-09T18:35:23.999Z,1.30
2019-01-09T18:38:16.277Z,1.36
2019-01-09T18:41:32.444Z,1.27
2019-01-09T18:44:49.953Z,1.27
2019-01-09T18:47:47.579Z,1.22
2019-01-09T18:51:00.764Z,1.27
2019-01-09T18:53:58.939Z,1.25
2019-01-09T18:56:34.728Z,1.27
2019-01-09T18:59:08.292Z,1.26
2019-01-09T19:01:41.368Z,1.23
2019-01-09T19:04:14.565Z,1.34
2019-01-09T19:06:48.546Z,1.29
2019-01-09T19:09:21.788Z,1.28
2019-01-09T19:11:54.954Z,1.32
2019-01-09T19:14:27.644Z,1.30
